sensor_id;sensor_type;location;lat;lon;timestamp;P1;durP1;ratioP1;P2;durP2;ratioP2
45420;SDS011;55462;47.042;8.292;2023-05-20T00:01:15;9.35;;;8.40;;
45420;SDS011;55462;47.042;8.292;2023-05-20T00:03:41;8.73;;;7.93;;
45420;SDS011;55462;47.042;8.292;2023-05-20T00:06:06;9.48;;;8.48;;
45420;SDS011;55462;47.042;8.292;2023-05-20T00:08:31;8.40;;;7.65;;
45420;SDS011;55462;47.042;8.292;2023-05-20T00:10:57;9.07;;;8.18;;
45420;SDS011;55462;47.042;8.292;2023-05-20T00:13:22;9.13;;;8.43;;
45420;SDS011;55462;47.042;8.292;2023-05-20T00:15:48;8.38;;;7.57;;
45420;SDS011;55462;47.042;8.292;2023-05-20T00:18:14;8.88;;;8.07;;
45420;SDS011;55462;47.042;8.292;2023-05-20T00:20:39;9.52;;;8.63;;
45420;SDS011;55462;47.042;8.292;2023-05-20T00:23:04;11.45;;;7.90;;
45420;SDS011;55462;47.042;8.292;2023-05-20T00:25:29;10.15;;;9.05;;
45420;SDS011;55462;47.042;8.292;2023-05-20T00:27:56;8.45;;;7.60;;
45420;SDS011;55462;47.042;8.292;2023-05-20T00:30:21;8.90;;;8.02;;
45420;SDS011;55462;47.042;8.292;2023-05-20T00:32:46;10.43;;;9.43;;
45420;SDS011;55462;47.042;8.292;2023-05-20T00:35:12;9.90;;;8.85;;
45420;SDS011;55462;47.042;8.292;2023-05-20T00:37:37;9.13;;;8.27;;
45420;SDS011;55462;47.042;8.292;2023-05-20T00:40:03;10.88;;;9.77;;
45420;SDS011;55462;47.042;8.292;2023-05-20T00:42:29;9.73;;;8.82;;
45420;SDS011;55462;47.042;8.292;2023-05-20T00:44:55;9.00;;;8.20;;
45420;SDS011;55462;47.042;8.292;2023-05-20T00:47:31;8.88;;;8.07;;
45420;SDS011;55462;47.042;8.292;2023-05-20T00:49:57;10.18;;;9.07;;
45420;SDS011;55462;47.042;8.292;2023-05-20T00:52:23;9.43;;;8.45;;
45420;SDS011;55462;47.042;8.292;2023-05-20T00:54:49;9.60;;;8.80;;
45420;SDS011;55462;47.042;8.292;2023-05-20T00:57:15;10.57;;;9.55;;
45420;SDS011;55462;47.042;8.292;2023-05-20T00:59:41;9.70;;;8.70;;
45420;SDS011;55462;47.042;8.292;2023-05-20T01:02:06;12.40;;;9.02;;
45420;SDS011;55462;47.042;8.292;2023-05-20T01:04:32;10.45;;;9.45;;
45420;SDS011;55462;47.042;8.292;2023-05-20T01:06:58;10.07;;;9.07;;
45420;SDS011;55462;47.042;8.292;2023-05-20T01:09:25;11.52;;;10.18;;
45420;SDS011;55462;47.042;8.292;2023-05-20T01:11:57;13.77;;;10.10;;
45420;SDS011;55462;47.042;8.292;2023-05-20T01:14:23;11.65;;;10.55;;
45420;SDS011;55462;47.042;8.292;2023-05-20T01:16:51;10.55;;;9.60;;
45420;SDS011;55462;47.042;8.292;2023-05-20T01:19:24;10.73;;;9.75;;
45420;SDS011;55462;47.042;8.292;2023-05-20T01:21:52;9.32;;;8.43;;
45420;SDS011;55462;47.042;8.292;2023-05-20T01:24:18;9.20;;;8.38;;
45420;SDS011;55462;47.042;8.292;2023-05-20T01:26:43;9.23;;;8.25;;
45420;SDS011;55462;47.042;8.292;2023-05-20T01:29:12;9.70;;;8.70;;
45420;SDS011;55462;47.042;8.292;2023-05-20T01:31:37;10.38;;;9.27;;
45420;SDS011;55462;47.042;8.292;2023-05-20T01:34:03;9.85;;;9.00;;
45420;SDS011;55462;47.042;8.292;2023-05-20T01:36:28;10.05;;;9.07;;
45420;SDS011;55462;47.042;8.292;2023-05-20T01:38:55;10.25;;;9.25;;
45420;SDS011;55462;47.042;8.292;2023-05-20T01:41:21;10.85;;;9.68;;
45420;SDS011;55462;47.042;8.292;2023-05-20T01:43:48;10.00;;;9.02;;
45420;SDS011;55462;47.042;8.292;2023-05-20T01:46:14;10.52;;;9.07;;
45420;SDS011;55462;47.042;8.292;2023-05-20T01:48:39;9.43;;;8.52;;
45420;SDS011;55462;47.042;8.292;2023-05-20T01:51:05;10.35;;;9.13;;
45420;SDS011;55462;47.042;8.292;2023-05-20T01:53:30;9.93;;;8.98;;
45420;SDS011;55462;47.042;8.292;2023-05-20T01:55:55;10.35;;;9.35;;
45420;SDS011;55462;47.042;8.292;2023-05-20T01:58:20;9.73;;;8.85;;
45420;SDS011;55462;47.042;8.292;2023-05-20T02:00:46;9.05;;;8.25;;
45420;SDS011;55462;47.042;8.292;2023-05-20T02:03:11;9.63;;;8.73;;
45420;SDS011;55462;47.042;8.292;2023-05-20T02:05:36;10.35;;;9.35;;
45420;SDS011;55462;47.042;8.292;2023-05-20T02:08:02;10.35;;;9.32;;
45420;SDS011;55462;47.042;8.292;2023-05-20T02:10:27;10.77;;;9.88;;
45420;SDS011;55462;47.042;8.292;2023-05-20T02:12:52;12.98;;;9.88;;
45420;SDS011;55462;47.042;8.292;2023-05-20T02:15:18;11.25;;;10.13;;
45420;SDS011;55462;47.042;8.292;2023-05-20T02:17:43;11.10;;;9.48;;
45420;SDS011;55462;47.042;8.292;2023-05-20T02:20:08;10.63;;;9.50;;
45420;SDS011;55462;47.042;8.292;2023-05-20T02:22:34;10.70;;;9.57;;
45420;SDS011;55462;47.042;8.292;2023-05-20T02:25:26;9.52;;;8.60;;
45420;SDS011;55462;47.042;8.292;2023-05-20T02:27:51;10.00;;;9.10;;
45420;SDS011;55462;47.042;8.292;2023-05-20T02:30:17;11.93;;;9.98;;
45420;SDS011;55462;47.042;8.292;2023-05-20T02:32:42;10.00;;;9.02;;
45420;SDS011;55462;47.042;8.292;2023-05-20T02:35:07;10.40;;;9.18;;
45420;SDS011;55462;47.042;8.292;2023-05-20T02:37:33;11.15;;;8.77;;
45420;SDS011;55462;47.042;8.292;2023-05-20T02:39:58;9.15;;;8.40;;
45420;SDS011;55462;47.042;8.292;2023-05-20T02:42:23;9.55;;;8.65;;
45420;SDS011;55462;47.042;8.292;2023-05-20T02:44:49;9.20;;;8.25;;
45420;SDS011;55462;47.042;8.292;2023-05-20T02:47:14;9.48;;;8.68;;
45420;SDS011;55462;47.042;8.292;2023-05-20T02:49:39;8.88;;;8.05;;
45420;SDS011;55462;47.042;8.292;2023-05-20T02:52:05;10.27;;;8.95;;
45420;SDS011;55462;47.042;8.292;2023-05-20T02:54:31;10.65;;;9.43;;
45420;SDS011;55462;47.042;8.292;2023-05-20T02:56:56;10.27;;;9.27;;
45420;SDS011;55462;47.042;8.292;2023-05-20T02:59:21;11.48;;;10.48;;
45420;SDS011;55462;47.042;8.292;2023-05-20T03:01:47;11.73;;;10.00;;
45420;SDS011;55462;47.042;8.292;2023-05-20T03:04:12;10.35;;;9.35;;
45420;SDS011;55462;47.042;8.292;2023-05-20T03:06:37;10.00;;;9.00;;
45420;SDS011;55462;47.042;8.292;2023-05-20T03:09:08;9.90;;;9.10;;
45420;SDS011;55462;47.042;8.292;2023-05-20T03:11:33;9.63;;;8.80;;
45420;SDS011;55462;47.042;8.292;2023-05-20T03:13:59;10.02;;;9.13;;
45420;SDS011;55462;47.042;8.292;2023-05-20T03:16:24;9.43;;;8.60;;
45420;SDS011;55462;47.042;8.292;2023-05-20T03:18:51;10.52;;;9.60;;
45420;SDS011;55462;47.042;8.292;2023-05-20T03:21:18;10.63;;;9.52;;
45420;SDS011;55462;47.042;8.292;2023-05-20T03:23:43;10.27;;;9.27;;
45420;SDS011;55462;47.042;8.292;2023-05-20T03:26:09;11.27;;;10.23;;
45420;SDS011;55462;47.042;8.292;2023-05-20T03:28:35;9.73;;;8.82;;
45420;SDS011;55462;47.042;8.292;2023-05-20T03:31:00;9.75;;;8.77;;
45420;SDS011;55462;47.042;8.292;2023-05-20T03:33:27;9.77;;;8.77;;
45420;SDS011;55462;47.042;8.292;2023-05-20T03:35:52;11.45;;;10.25;;
45420;SDS011;55462;47.042;8.292;2023-05-20T03:38:17;10.65;;;9.65;;
45420;SDS011;55462;47.042;8.292;2023-05-20T03:40:42;10.07;;;9.02;;
45420;SDS011;55462;47.042;8.292;2023-05-20T03:43:08;10.18;;;9.27;;
45420;SDS011;55462;47.042;8.292;2023-05-20T03:45:33;10.48;;;9.38;;
45420;SDS011;55462;47.042;8.292;2023-05-20T03:47:58;10.98;;;9.85;;
45420;SDS011;55462;47.042;8.292;2023-05-20T03:50:24;9.70;;;8.80;;
45420;SDS011;55462;47.042;8.292;2023-05-20T03:52:49;11.35;;;8.93;;
45420;SDS011;55462;47.042;8.292;2023-05-20T03:55:15;10.48;;;9.23;;
45420;SDS011;55462;47.042;8.292;2023-05-20T03:57:40;10.63;;;8.93;;
45420;SDS011;55462;47.042;8.292;2023-05-20T04:00:06;11.57;;;9.70;;
45420;SDS011;55462;47.042;8.292;2023-05-20T04:02:35;10.90;;;9.80;;
45420;SDS011;55462;47.042;8.292;2023-05-20T04:05:02;10.07;;;9.07;;
45420;SDS011;55462;47.042;8.292;2023-05-20T04:07:28;10.40;;;9.40;;
45420;SDS011;55462;47.042;8.292;2023-05-20T04:09:53;11.30;;;10.00;;
45420;SDS011;55462;47.042;8.292;2023-05-20T04:12:19;10.80;;;9.45;;
45420;SDS011;55462;47.042;8.292;2023-05-20T04:14:44;11.60;;;10.50;;
45420;SDS011;55462;47.042;8.292;2023-05-20T04:17:10;11.73;;;10.68;;
45420;SDS011;55462;47.042;8.292;2023-05-20T04:19:35;10.82;;;9.93;;
45420;SDS011;55462;47.042;8.292;2023-05-20T04:22:02;15.60;;;10.27;;
45420;SDS011;55462;47.042;8.292;2023-05-20T04:24:28;11.43;;;10.32;;
45420;SDS011;55462;47.042;8.292;2023-05-20T04:26:53;11.65;;;10.27;;
45420;SDS011;55462;47.042;8.292;2023-05-20T04:29:19;10.77;;;9.88;;
45420;SDS011;55462;47.042;8.292;2023-05-20T04:31:45;10.52;;;9.57;;
45420;SDS011;55462;47.042;8.292;2023-05-20T04:34:11;10.27;;;9.38;;
45420;SDS011;55462;47.042;8.292;2023-05-20T04:36:36;10.90;;;9.85;;
45420;SDS011;55462;47.042;8.292;2023-05-20T04:39:02;10.73;;;9.80;;
45420;SDS011;55462;47.042;8.292;2023-05-20T04:41:29;12.55;;;9.65;;
45420;SDS011;55462;47.042;8.292;2023-05-20T04:43:55;11.48;;;10.48;;
45420;SDS011;55462;47.042;8.292;2023-05-20T04:46:24;10.55;;;9.60;;
45420;SDS011;55462;47.042;8.292;2023-05-20T04:48:50;12.10;;;10.68;;
45420;SDS011;55462;47.042;8.292;2023-05-20T04:51:15;11.35;;;10.38;;
45420;SDS011;55462;47.042;8.292;2023-05-20T04:53:41;10.45;;;9.55;;
45420;SDS011;55462;47.042;8.292;2023-05-20T04:56:07;10.40;;;9.43;;
45420;SDS011;55462;47.042;8.292;2023-05-20T04:58:32;11.23;;;10.32;;
45420;SDS011;55462;47.042;8.292;2023-05-20T05:00:58;11.48;;;10.38;;
45420;SDS011;55462;47.042;8.292;2023-05-20T05:03:23;11.07;;;10.10;;
45420;SDS011;55462;47.042;8.292;2023-05-20T05:05:49;11.00;;;9.90;;
45420;SDS011;55462;47.042;8.292;2023-05-20T05:08:14;10.57;;;9.50;;
45420;SDS011;55462;47.042;8.292;2023-05-20T05:10:41;10.85;;;9.88;;
45420;SDS011;55462;47.042;8.292;2023-05-20T05:13:06;10.35;;;9.45;;
45420;SDS011;55462;47.042;8.292;2023-05-20T05:15:31;10.82;;;9.50;;
45420;SDS011;55462;47.042;8.292;2023-05-20T05:17:57;11.00;;;9.95;;
45420;SDS011;55462;47.042;8.292;2023-05-20T05:20:22;12.18;;;10.35;;
45420;SDS011;55462;47.042;8.292;2023-05-20T05:22:48;11.30;;;10.30;;
45420;SDS011;55462;47.042;8.292;2023-05-20T05:25:14;11.70;;;10.48;;
45420;SDS011;55462;47.042;8.292;2023-05-20T05:27:40;11.00;;;9.85;;
45420;SDS011;55462;47.042;8.292;2023-05-20T05:30:05;10.82;;;9.93;;
45420;SDS011;55462;47.042;8.292;2023-05-20T05:32:32;11.05;;;10.05;;
45420;SDS011;55462;47.042;8.292;2023-05-20T05:34:57;11.77;;;10.52;;
45420;SDS011;55462;47.042;8.292;2023-05-20T05:37:23;11.18;;;10.18;;
45420;SDS011;55462;47.042;8.292;2023-05-20T05:39:48;10.60;;;9.70;;
45420;SDS011;55462;47.042;8.292;2023-05-20T05:42:13;14.57;;;11.18;;
45420;SDS011;55462;47.042;8.292;2023-05-20T05:44:39;13.00;;;11.65;;
45420;SDS011;55462;47.042;8.292;2023-05-20T05:47:05;12.30;;;11.07;;
45420;SDS011;55462;47.042;8.292;2023-05-20T05:49:31;11.40;;;10.23;;
45420;SDS011;55462;47.042;8.292;2023-05-20T05:51:56;11.43;;;10.43;;
45420;SDS011;55462;47.042;8.292;2023-05-20T05:54:22;12.93;;;11.02;;
45420;SDS011;55462;47.042;8.292;2023-05-20T05:56:47;11.10;;;10.00;;
45420;SDS011;55462;47.042;8.292;2023-05-20T05:59:14;12.68;;;11.48;;
45420;SDS011;55462;47.042;8.292;2023-05-20T06:01:39;11.73;;;10.60;;
45420;SDS011;55462;47.042;8.292;2023-05-20T06:04:05;10.77;;;9.77;;
45420;SDS011;55462;47.042;8.292;2023-05-20T06:06:30;12.70;;;11.43;;
45420;SDS011;55462;47.042;8.292;2023-05-20T06:08:56;14.18;;;12.57;;
45420;SDS011;55462;47.042;8.292;2023-05-20T06:11:21;12.18;;;10.95;;
45420;SDS011;55462;47.042;8.292;2023-05-20T06:13:48;13.52;;;11.68;;
45420;SDS011;55462;47.042;8.292;2023-05-20T06:16:13;13.45;;;11.73;;
45420;SDS011;55462;47.042;8.292;2023-05-20T06:18:38;13.13;;;11.82;;
45420;SDS011;55462;47.042;8.292;2023-05-20T06:21:04;13.68;;;12.20;;
45420;SDS011;55462;47.042;8.292;2023-05-20T06:23:30;12.98;;;11.70;;
45420;SDS011;55462;47.042;8.292;2023-05-20T06:25:58;12.95;;;11.68;;
45420;SDS011;55462;47.042;8.292;2023-05-20T06:28:24;12.98;;;11.88;;
45420;SDS011;55462;47.042;8.292;2023-05-20T06:30:50;12.80;;;11.60;;
45420;SDS011;55462;47.042;8.292;2023-05-20T06:33:18;14.95;;;11.68;;
45420;SDS011;55462;47.042;8.292;2023-05-20T06:35:44;12.00;;;10.90;;
45420;SDS011;55462;47.042;8.292;2023-05-20T06:38:09;12.82;;;11.63;;
45420;SDS011;55462;47.042;8.292;2023-05-20T06:40:34;13.43;;;11.77;;
45420;SDS011;55462;47.042;8.292;2023-05-20T06:43:00;13.18;;;11.90;;
45420;SDS011;55462;47.042;8.292;2023-05-20T06:45:25;13.40;;;12.10;;
45420;SDS011;55462;47.042;8.292;2023-05-20T06:47:50;11.98;;;10.98;;
45420;SDS011;55462;47.042;8.292;2023-05-20T06:50:18;12.13;;;11.02;;
45420;SDS011;55462;47.042;8.292;2023-05-20T06:52:43;12.40;;;11.23;;
45420;SDS011;55462;47.042;8.292;2023-05-20T06:55:08;11.50;;;10.48;;
45420;SDS011;55462;47.042;8.292;2023-05-20T06:57:34;11.65;;;10.45;;
45420;SDS011;55462;47.042;8.292;2023-05-20T06:59:59;12.15;;;11.10;;
45420;SDS011;55462;47.042;8.292;2023-05-20T07:02:25;14.07;;;11.48;;
45420;SDS011;55462;47.042;8.292;2023-05-20T07:04:50;14.25;;;11.15;;
45420;SDS011;55462;47.042;8.292;2023-05-20T07:07:15;12.25;;;11.05;;
45420;SDS011;55462;47.042;8.292;2023-05-20T07:09:41;11.63;;;10.27;;
45420;SDS011;55462;47.042;8.292;2023-05-20T07:12:07;13.27;;;12.07;;
45420;SDS011;55462;47.042;8.292;2023-05-20T07:14:32;11.65;;;10.55;;
45420;SDS011;55462;47.042;8.292;2023-05-20T07:16:58;15.73;;;13.05;;
45420;SDS011;55462;47.042;8.292;2023-05-20T07:19:23;13.38;;;11.75;;
45420;SDS011;55462;47.042;8.292;2023-05-20T07:21:48;13.35;;;12.05;;
45420;SDS011;55462;47.042;8.292;2023-05-20T07:24:14;12.65;;;11.35;;
45420;SDS011;55462;47.042;8.292;2023-05-20T07:26:40;12.93;;;11.77;;
45420;SDS011;55462;47.042;8.292;2023-05-20T07:29:05;13.80;;;11.63;;
45420;SDS011;55462;47.042;8.292;2023-05-20T07:31:31;12.55;;;11.25;;
45420;SDS011;55462;47.042;8.292;2023-05-20T07:33:56;12.05;;;10.20;;
45420;SDS011;55462;47.042;8.292;2023-05-20T07:36:21;12.05;;;10.95;;
45420;SDS011;55462;47.042;8.292;2023-05-20T07:38:47;12.27;;;11.23;;
45420;SDS011;55462;47.042;8.292;2023-05-20T07:41:12;12.30;;;11.02;;
45420;SDS011;55462;47.042;8.292;2023-05-20T07:43:39;14.02;;;12.63;;
45420;SDS011;55462;47.042;8.292;2023-05-20T07:46:04;12.50;;;11.45;;
45420;SDS011;55462;47.042;8.292;2023-05-20T07:48:29;12.68;;;11.30;;
45420;SDS011;55462;47.042;8.292;2023-05-20T07:50:55;14.15;;;12.70;;
45420;SDS011;55462;47.042;8.292;2023-05-20T07:53:23;13.07;;;11.75;;
45420;SDS011;55462;47.042;8.292;2023-05-20T07:55:48;15.30;;;12.57;;
45420;SDS011;55462;47.042;8.292;2023-05-20T07:58:14;13.85;;;12.25;;
45420;SDS011;55462;47.042;8.292;2023-05-20T08:00:39;13.98;;;12.65;;
45420;SDS011;55462;47.042;8.292;2023-05-20T08:03:05;13.05;;;11.82;;
45420;SDS011;55462;47.042;8.292;2023-05-20T08:05:31;13.07;;;11.95;;
45420;SDS011;55462;47.042;8.292;2023-05-20T08:07:57;12.65;;;11.27;;
45420;SDS011;55462;47.042;8.292;2023-05-20T08:10:22;13.55;;;12.20;;
45420;SDS011;55462;47.042;8.292;2023-05-20T08:12:47;12.55;;;11.35;;
45420;SDS011;55462;47.042;8.292;2023-05-20T08:15:12;12.55;;;11.48;;
45420;SDS011;55462;47.042;8.292;2023-05-20T08:17:38;12.48;;;11.38;;
45420;SDS011;55462;47.042;8.292;2023-05-20T08:20:03;12.57;;;11.48;;
45420;SDS011;55462;47.042;8.292;2023-05-20T08:22:29;14.30;;;11.00;;
45420;SDS011;55462;47.042;8.292;2023-05-20T08:24:55;12.25;;;11.05;;
45420;SDS011;55462;47.042;8.292;2023-05-20T08:27:20;13.13;;;11.77;;
45420;SDS011;55462;47.042;8.292;2023-05-20T08:29:46;12.93;;;11.63;;
45420;SDS011;55462;47.042;8.292;2023-05-20T08:32:11;12.18;;;10.98;;
45420;SDS011;55462;47.042;8.292;2023-05-20T08:34:36;11.95;;;10.75;;
45420;SDS011;55462;47.042;8.292;2023-05-20T08:37:02;11.30;;;10.07;;
45420;SDS011;55462;47.042;8.292;2023-05-20T08:39:27;11.77;;;10.68;;
45420;SDS011;55462;47.042;8.292;2023-05-20T08:41:52;11.25;;;10.15;;
45420;SDS011;55462;47.042;8.292;2023-05-20T08:44:18;10.48;;;9.48;;
45420;SDS011;55462;47.042;8.292;2023-05-20T08:46:45;11.23;;;10.23;;
45420;SDS011;55462;47.042;8.292;2023-05-20T08:49:11;13.85;;;11.20;;
45420;SDS011;55462;47.042;8.292;2023-05-20T08:51:37;10.32;;;9.38;;
45420;SDS011;55462;47.042;8.292;2023-05-20T08:54:03;10.80;;;9.80;;
45420;SDS011;55462;47.042;8.292;2023-05-20T08:56:28;10.68;;;9.73;;
45420;SDS011;55462;47.042;8.292;2023-05-20T08:58:55;10.48;;;9.60;;
45420;SDS011;55462;47.042;8.292;2023-05-20T09:01:22;10.43;;;9.52;;
45420;SDS011;55462;47.042;8.292;2023-05-20T09:03:49;10.65;;;9.75;;
45420;SDS011;55462;47.042;8.292;2023-05-20T09:06:15;11.10;;;10.10;;
45420;SDS011;55462;47.042;8.292;2023-05-20T09:08:44;10.10;;;9.20;;
45420;SDS011;55462;47.042;8.292;2023-05-20T09:11:10;10.93;;;9.82;;
45420;SDS011;55462;47.042;8.292;2023-05-20T09:13:36;10.75;;;9.73;;
45420;SDS011;55462;47.042;8.292;2023-05-20T09:16:01;10.98;;;9.98;;
45420;SDS011;55462;47.042;8.292;2023-05-20T09:18:27;11.15;;;10.07;;
45420;SDS011;55462;47.042;8.292;2023-05-20T09:20:53;11.48;;;9.88;;
45420;SDS011;55462;47.042;8.292;2023-05-20T09:23:18;10.60;;;9.50;;
45420;SDS011;55462;47.042;8.292;2023-05-20T09:25:50;11.65;;;10.50;;
45420;SDS011;55462;47.042;8.292;2023-05-20T09:28:18;11.65;;;10.50;;
45420;SDS011;55462;47.042;8.292;2023-05-20T09:30:44;11.98;;;10.80;;
45420;SDS011;55462;47.042;8.292;2023-05-20T09:33:10;11.43;;;10.32;;
45420;SDS011;55462;47.042;8.292;2023-05-20T09:35:36;10.90;;;9.85;;
45420;SDS011;55462;47.042;8.292;2023-05-20T09:38:01;10.05;;;9.15;;
45420;SDS011;55462;47.042;8.292;2023-05-20T09:40:29;10.63;;;9.52;;
45420;SDS011;55462;47.042;8.292;2023-05-20T09:43:04;12.02;;;10.93;;
45420;SDS011;55462;47.042;8.292;2023-05-20T09:45:31;11.55;;;10.55;;
45420;SDS011;55462;47.042;8.292;2023-05-20T09:47:57;11.27;;;10.18;;
45420;SDS011;55462;47.042;8.292;2023-05-20T09:50:23;11.45;;;10.40;;
45420;SDS011;55462;47.042;8.292;2023-05-20T09:52:50;12.57;;;9.93;;
45420;SDS011;55462;47.042;8.292;2023-05-20T09:55:18;11.15;;;10.15;;
45420;SDS011;55462;47.042;8.292;2023-05-20T09:57:45;10.73;;;9.70;;
45420;SDS011;55462;47.042;8.292;2023-05-20T10:00:11;10.10;;;9.18;;
45420;SDS011;55462;47.042;8.292;2023-05-20T10:02:37;11.00;;;10.00;;
45420;SDS011;55462;47.042;8.292;2023-05-20T10:05:06;11.32;;;10.32;;
45420;SDS011;55462;47.042;8.292;2023-05-20T10:10:48;10.60;;;9.70;;
45420;SDS011;55462;47.042;8.292;2023-05-20T10:19:05;10.57;;;9.68;;
45420;SDS011;55462;47.042;8.292;2023-05-20T10:21:31;10.52;;;9.55;;
45420;SDS011;55462;47.042;8.292;2023-05-20T10:24:06;11.18;;;9.95;;
45420;SDS011;55462;47.042;8.292;2023-05-20T10:26:36;10.80;;;9.80;;
45420;SDS011;55462;47.042;8.292;2023-05-20T10:29:18;11.55;;;10.55;;
45420;SDS011;55462;47.042;8.292;2023-05-20T10:31:47;12.18;;;11.07;;
45420;SDS011;55462;47.042;8.292;2023-05-20T10:34:17;11.68;;;10.65;;
45420;SDS011;55462;47.042;8.292;2023-05-20T10:37:04;12.18;;;10.68;;
45420;SDS011;55462;47.042;8.292;2023-05-20T10:39:30;12.45;;;11.30;;
45420;SDS011;55462;47.042;8.292;2023-05-20T10:42:05;10.98;;;9.98;;
45420;SDS011;55462;47.042;8.292;2023-05-20T10:44:41;11.95;;;10.88;;
45420;SDS011;55462;47.042;8.292;2023-05-20T10:47:07;11.80;;;10.77;;
45420;SDS011;55462;47.042;8.292;2023-05-20T10:49:33;12.32;;;11.07;;
45420;SDS011;55462;47.042;8.292;2023-05-20T10:51:59;12.23;;;11.13;;
45420;SDS011;55462;47.042;8.292;2023-05-20T10:54:24;12.98;;;11.52;;
45420;SDS011;55462;47.042;8.292;2023-05-20T10:56:50;12.35;;;10.82;;
45420;SDS011;55462;47.042;8.292;2023-05-20T10:59:17;15.23;;;11.88;;
45420;SDS011;55462;47.042;8.292;2023-05-20T11:01:43;12.82;;;11.48;;
45420;SDS011;55462;47.042;8.292;2023-05-20T11:04:10;11.70;;;10.70;;
45420;SDS011;55462;47.042;8.292;2023-05-20T11:06:37;13.23;;;12.13;;
45420;SDS011;55462;47.042;8.292;2023-05-20T11:09:03;12.20;;;11.10;;
45420;SDS011;55462;47.042;8.292;2023-05-20T11:11:31;11.50;;;10.30;;
45420;SDS011;55462;47.042;8.292;2023-05-20T11:13:57;12.80;;;11.50;;
45420;SDS011;55462;47.042;8.292;2023-05-20T11:16:22;12.95;;;11.75;;
45420;SDS011;55462;47.042;8.292;2023-05-20T11:18:48;13.13;;;12.02;;
45420;SDS011;55462;47.042;8.292;2023-05-20T11:21:14;12.82;;;11.73;;
45420;SDS011;55462;47.042;8.292;2023-05-20T11:23:40;13.20;;;11.95;;
45420;SDS011;55462;47.042;8.292;2023-05-20T11:26:06;12.80;;;11.55;;
45420;SDS011;55462;47.042;8.292;2023-05-20T11:28:31;12.05;;;11.02;;
45420;SDS011;55462;47.042;8.292;2023-05-20T11:30:59;13.73;;;11.02;;
45420;SDS011;55462;47.042;8.292;2023-05-20T11:33:25;12.07;;;11.00;;
45420;SDS011;55462;47.042;8.292;2023-05-20T11:35:51;13.25;;;11.40;;
45420;SDS011;55462;47.042;8.292;2023-05-20T11:38:17;12.43;;;11.43;;
45420;SDS011;55462;47.042;8.292;2023-05-20T11:40:53;13.77;;;11.57;;
45420;SDS011;55462;47.042;8.292;2023-05-20T11:43:19;13.07;;;11.88;;
45420;SDS011;55462;47.042;8.292;2023-05-20T11:45:55;12.25;;;11.23;;
45420;SDS011;55462;47.042;8.292;2023-05-20T11:48:23;12.02;;;10.93;;
45420;SDS011;55462;47.042;8.292;2023-05-20T11:50:49;12.02;;;10.82;;
45420;SDS011;55462;47.042;8.292;2023-05-20T11:53:15;11.88;;;10.88;;
45420;SDS011;55462;47.042;8.292;2023-05-20T11:55:51;12.07;;;11.00;;
45420;SDS011;55462;47.042;8.292;2023-05-20T11:58:19;12.15;;;11.05;;
45420;SDS011;55462;47.042;8.292;2023-05-20T12:00:49;12.00;;;10.90;;
45420;SDS011;55462;47.042;8.292;2023-05-20T12:03:15;12.27;;;11.13;;
45420;SDS011;55462;47.042;8.292;2023-05-20T12:05:40;13.02;;;11.75;;
45420;SDS011;55462;47.042;8.292;2023-05-20T12:08:07;13.00;;;11.82;;
45420;SDS011;55462;47.042;8.292;2023-05-20T12:10:32;12.18;;;11.05;;
45420;SDS011;55462;47.042;8.292;2023-05-20T12:12:58;12.43;;;11.30;;
45420;SDS011;55462;47.042;8.292;2023-05-20T12:15:23;12.60;;;11.43;;
45420;SDS011;55462;47.042;8.292;2023-05-20T12:17:50;12.77;;;11.68;;
45420;SDS011;55462;47.042;8.292;2023-05-20T12:20:16;12.10;;;11.10;;
45420;SDS011;55462;47.042;8.292;2023-05-20T12:22:44;12.52;;;11.52;;
45420;SDS011;55462;47.042;8.292;2023-05-20T12:25:10;11.45;;;10.43;;
45420;SDS011;55462;47.042;8.292;2023-05-20T12:27:36;13.02;;;11.73;;
45420;SDS011;55462;47.042;8.292;2023-05-20T12:30:01;12.63;;;11.60;;
45420;SDS011;55462;47.042;8.292;2023-05-20T12:32:27;12.63;;;11.10;;
45420;SDS011;55462;47.042;8.292;2023-05-20T12:34:52;12.40;;;11.18;;
45420;SDS011;55462;47.042;8.292;2023-05-20T12:37:17;12.48;;;11.35;;
45420;SDS011;55462;47.042;8.292;2023-05-20T12:39:43;13.30;;;12.20;;
45420;SDS011;55462;47.042;8.292;2023-05-20T12:42:08;12.20;;;11.18;;
45420;SDS011;55462;47.042;8.292;2023-05-20T12:44:33;12.82;;;11.63;;
45420;SDS011;55462;47.042;8.292;2023-05-20T12:46:58;12.63;;;11.40;;
45420;SDS011;55462;47.042;8.292;2023-05-20T12:49:24;11.45;;;10.55;;
45420;SDS011;55462;47.042;8.292;2023-05-20T12:51:49;12.18;;;11.13;;
45420;SDS011;55462;47.042;8.292;2023-05-20T12:54:15;13.40;;;12.20;;
45420;SDS011;55462;47.042;8.292;2023-05-20T12:56:41;13.45;;;12.35;;
45420;SDS011;55462;47.042;8.292;2023-05-20T12:59:06;13.73;;;12.45;;
45420;SDS011;55462;47.042;8.292;2023-05-20T13:01:32;12.02;;;10.93;;
45420;SDS011;55462;47.042;8.292;2023-05-20T13:03:57;12.88;;;11.55;;
45420;SDS011;55462;47.042;8.292;2023-05-20T13:06:23;13.25;;;12.07;;
45420;SDS011;55462;47.042;8.292;2023-05-20T13:08:48;12.48;;;11.38;;
45420;SDS011;55462;47.042;8.292;2023-05-20T13:11:13;11.85;;;10.85;;
45420;SDS011;55462;47.042;8.292;2023-05-20T13:13:39;12.55;;;11.43;;
45420;SDS011;55462;47.042;8.292;2023-05-20T13:16:05;11.65;;;10.75;;
45420;SDS011;55462;47.042;8.292;2023-05-20T13:18:30;11.73;;;10.82;;
45420;SDS011;55462;47.042;8.292;2023-05-20T13:20:56;12.63;;;11.50;;
45420;SDS011;55462;47.042;8.292;2023-05-20T13:23:21;12.65;;;11.50;;
45420;SDS011;55462;47.042;8.292;2023-05-20T13:25:47;11.80;;;10.70;;
45420;SDS011;55462;47.042;8.292;2023-05-20T13:28:12;13.50;;;11.63;;
45420;SDS011;55462;47.042;8.292;2023-05-20T13:30:40;11.65;;;10.55;;
45420;SDS011;55462;47.042;8.292;2023-05-20T13:33:05;11.90;;;10.80;;
45420;SDS011;55462;47.042;8.292;2023-05-20T13:35:31;13.43;;;11.40;;
45420;SDS011;55462;47.042;8.292;2023-05-20T13:37:56;12.30;;;11.23;;
45420;SDS011;55462;47.042;8.292;2023-05-20T13:40:21;12.45;;;11.15;;
45420;SDS011;55462;47.042;8.292;2023-05-20T13:42:47;12.30;;;11.20;;
45420;SDS011;55462;47.042;8.292;2023-05-20T13:45:12;12.35;;;11.15;;
45420;SDS011;55462;47.042;8.292;2023-05-20T13:47:37;11.73;;;10.63;;
45420;SDS011;55462;47.042;8.292;2023-05-20T13:50:03;12.82;;;11.65;;
45420;SDS011;55462;47.042;8.292;2023-05-20T13:52:28;14.95;;;11.38;;
45420;SDS011;55462;47.042;8.292;2023-05-20T13:54:54;12.75;;;11.43;;
45420;SDS011;55462;47.042;8.292;2023-05-20T13:57:19;12.25;;;10.95;;
45420;SDS011;55462;47.042;8.292;2023-05-20T13:59:44;14.05;;;12.75;;
45420;SDS011;55462;47.042;8.292;2023-05-20T14:02:10;13.98;;;12.43;;
45420;SDS011;55462;47.042;8.292;2023-05-20T14:04:35;13.20;;;11.90;;
45420;SDS011;55462;47.042;8.292;2023-05-20T14:07:05;11.75;;;10.75;;
45420;SDS011;55462;47.042;8.292;2023-05-20T14:09:30;12.85;;;11.75;;
45420;SDS011;55462;47.042;8.292;2023-05-20T14:11:55;13.55;;;12.15;;
45420;SDS011;55462;47.042;8.292;2023-05-20T14:14:21;13.15;;;11.82;;
45420;SDS011;55462;47.042;8.292;2023-05-20T14:16:46;13.25;;;11.93;;
45420;SDS011;55462;47.042;8.292;2023-05-20T14:19:12;13.77;;;12.50;;
45420;SDS011;55462;47.042;8.292;2023-05-20T14:21:37;12.20;;;11.25;;
45420;SDS011;55462;47.042;8.292;2023-05-20T14:24:02;13.20;;;11.80;;
45420;SDS011;55462;47.042;8.292;2023-05-20T14:26:28;12.38;;;11.30;;
45420;SDS011;55462;47.042;8.292;2023-05-20T14:28:53;12.88;;;11.73;;
45420;SDS011;55462;47.042;8.292;2023-05-20T14:31:18;12.95;;;11.60;;